sensor_id;sensor_type;location;lat;lon;timestamp;P1;durP1;ratioP1;P2;durP2;ratioP2
14975;SDS011;7584;60.468;25.126;2023-08-06T00:00:24;9.97;;;5.27;;
14975;SDS011;7584;60.468;25.126;2023-08-06T00:02:49;13.80;;;6.33;;
14975;SDS011;7584;60.468;25.126;2023-08-06T00:05:15;13.67;;;6.13;;
14975;SDS011;7584;60.468;25.126;2023-08-06T00:07:46;13.07;;;5.90;;
14975;SDS011;7584;60.468;25.126;2023-08-06T00:10:12;10.53;;;5.67;;
14975;SDS011;7584;60.468;25.126;2023-08-06T00:12:37;13.03;;;6.57;;
14975;SDS011;7584;60.468;25.126;2023-08-06T00:15:03;11.93;;;5.93;;
14975;SDS011;7584;60.468;25.126;2023-08-06T00:17:28;14.20;;;6.10;;
14975;SDS011;7584;60.468;25.126;2023-08-06T00:19:53;11.03;;;5.63;;
14975;SDS011;7584;60.468;25.126;2023-08-06T00:22:18;8.13;;;5.20;;
14975;SDS011;7584;60.468;25.126;2023-08-06T00:24:44;13.50;;;5.67;;
14975;SDS011;7584;60.468;25.126;2023-08-06T00:27:09;13.47;;;5.93;;
14975;SDS011;7584;60.468;25.126;2023-08-06T00:29:34;10.03;;;5.40;;
14975;SDS011;7584;60.468;25.126;2023-08-06T00:32:00;7.83;;;5.07;;
14975;SDS011;7584;60.468;25.126;2023-08-06T00:34:25;10.43;;;5.30;;
14975;SDS011;7584;60.468;25.126;2023-08-06T00:36:51;12.77;;;5.53;;
14975;SDS011;7584;60.468;25.126;2023-08-06T00:39:17;11.33;;;5.10;;
14975;SDS011;7584;60.468;25.126;2023-08-06T00:41:43;9.10;;;5.33;;
14975;SDS011;7584;60.468;25.126;2023-08-06T00:44:08;11.80;;;5.07;;
14975;SDS011;7584;60.468;25.126;2023-08-06T00:46:34;13.70;;;5.07;;
14975;SDS011;7584;60.468;25.126;2023-08-06T00:48:59;10.90;;;5.07;;
14975;SDS011;7584;60.468;25.126;2023-08-06T00:51:25;15.40;;;8.20;;
14975;SDS011;7584;60.468;25.126;2023-08-06T00:53:50;14.30;;;9.60;;
14975;SDS011;7584;60.468;25.126;2023-08-06T00:56:17;14.67;;;6.27;;
14975;SDS011;7584;60.468;25.126;2023-08-06T00:58:42;13.03;;;6.70;;
14975;SDS011;7584;60.468;25.126;2023-08-06T01:01:08;11.73;;;6.37;;
14975;SDS011;7584;60.468;25.126;2023-08-06T01:03:33;13.10;;;6.27;;
14975;SDS011;7584;60.468;25.126;2023-08-06T01:05:58;14.50;;;5.83;;
14975;SDS011;7584;60.468;25.126;2023-08-06T01:13:30;7.57;;;5.53;;
14975;SDS011;7584;60.468;25.126;2023-08-06T01:15:57;10.73;;;5.87;;
14975;SDS011;7584;60.468;25.126;2023-08-06T01:18:23;14.77;;;5.77;;
14975;SDS011;7584;60.468;25.126;2023-08-06T01:20:48;15.53;;;5.90;;
14975;SDS011;7584;60.468;25.126;2023-08-06T01:23:15;10.20;;;5.03;;
14975;SDS011;7584;60.468;25.126;2023-08-06T01:25:43;10.00;;;5.97;;
14975;SDS011;7584;60.468;25.126;2023-08-06T01:28:11;11.67;;;6.20;;
14975;SDS011;7584;60.468;25.126;2023-08-06T01:30:41;11.20;;;6.13;;
14975;SDS011;7584;60.468;25.126;2023-08-06T01:33:06;9.57;;;6.00;;
14975;SDS011;7584;60.468;25.126;2023-08-06T01:35:33;8.47;;;5.60;;
14975;SDS011;7584;60.468;25.126;2023-08-06T01:38:00;8.30;;;5.53;;
14975;SDS011;7584;60.468;25.126;2023-08-06T01:40:26;7.23;;;4.70;;
14975;SDS011;7584;60.468;25.126;2023-08-06T01:42:53;10.23;;;4.60;;
14975;SDS011;7584;60.468;25.126;2023-08-06T01:45:18;7.63;;;5.07;;
14975;SDS011;7584;60.468;25.126;2023-08-06T01:47:44;11.57;;;5.00;;
14975;SDS011;7584;60.468;25.126;2023-08-06T01:50:09;7.70;;;5.03;;
14975;SDS011;7584;60.468;25.126;2023-08-06T01:52:34;10.33;;;4.77;;
14975;SDS011;7584;60.468;25.126;2023-08-06T01:55:00;8.00;;;4.47;;
14975;SDS011;7584;60.468;25.126;2023-08-06T01:57:25;9.40;;;4.90;;
14975;SDS011;7584;60.468;25.126;2023-08-06T01:59:50;15.13;;;5.67;;
14975;SDS011;7584;60.468;25.126;2023-08-06T02:02:16;8.30;;;4.63;;
14975;SDS011;7584;60.468;25.126;2023-08-06T02:04:41;11.17;;;5.10;;
14975;SDS011;7584;60.468;25.126;2023-08-06T02:07:06;6.13;;;4.57;;
14975;SDS011;7584;60.468;25.126;2023-08-06T02:09:32;7.00;;;4.43;;
14975;SDS011;7584;60.468;25.126;2023-08-06T02:11:57;8.40;;;4.70;;
14975;SDS011;7584;60.468;25.126;2023-08-06T02:14:23;9.60;;;4.50;;
14975;SDS011;7584;60.468;25.126;2023-08-06T02:16:48;8.47;;;4.37;;
14975;SDS011;7584;60.468;25.126;2023-08-06T02:19:14;9.50;;;4.67;;
14975;SDS011;7584;60.468;25.126;2023-08-06T02:21:39;9.10;;;4.93;;
14975;SDS011;7584;60.468;25.126;2023-08-06T02:24:05;12.60;;;5.53;;
14975;SDS011;7584;60.468;25.126;2023-08-06T02:26:30;11.30;;;4.90;;
14975;SDS011;7584;60.468;25.126;2023-08-06T02:28:55;10.27;;;4.77;;
14975;SDS011;7584;60.468;25.126;2023-08-06T02:31:21;14.30;;;5.23;;
14975;SDS011;7584;60.468;25.126;2023-08-06T02:33:46;7.30;;;4.53;;
14975;SDS011;7584;60.468;25.126;2023-08-06T02:36:11;8.77;;;4.37;;
14975;SDS011;7584;60.468;25.126;2023-08-06T02:38:37;7.53;;;4.60;;
14975;SDS011;7584;60.468;25.126;2023-08-06T02:41:02;9.33;;;4.83;;
14975;SDS011;7584;60.468;25.126;2023-08-06T02:43:28;5.90;;;4.33;;
14975;SDS011;7584;60.468;25.126;2023-08-06T02:45:56;7.27;;;4.57;;
14975;SDS011;7584;60.468;25.126;2023-08-06T02:48:21;11.07;;;4.47;;
14975;SDS011;7584;60.468;25.126;2023-08-06T02:50:47;6.90;;;4.63;;
14975;SDS011;7584;60.468;25.126;2023-08-06T02:53:12;12.37;;;4.83;;
14975;SDS011;7584;60.468;25.126;2023-08-06T02:55:37;10.43;;;4.60;;
14975;SDS011;7584;60.468;25.126;2023-08-06T02:58:03;12.53;;;5.07;;
14975;SDS011;7584;60.468;25.126;2023-08-06T03:00:28;9.90;;;5.30;;
14975;SDS011;7584;60.468;25.126;2023-08-06T03:02:53;6.20;;;5.37;;
14975;SDS011;7584;60.468;25.126;2023-08-06T03:05:19;10.40;;;5.60;;
14975;SDS011;7584;60.468;25.126;2023-08-06T03:07:44;12.40;;;5.57;;
14975;SDS011;7584;60.468;25.126;2023-08-06T03:10:10;9.53;;;5.00;;
14975;SDS011;7584;60.468;25.126;2023-08-06T03:12:35;9.27;;;5.93;;
14975;SDS011;7584;60.468;25.126;2023-08-06T03:15:00;8.33;;;5.10;;
14975;SDS011;7584;60.468;25.126;2023-08-06T03:17:26;7.03;;;5.40;;
14975;SDS011;7584;60.468;25.126;2023-08-06T03:19:51;9.27;;;6.20;;
14975;SDS011;7584;60.468;25.126;2023-08-06T03:22:16;15.63;;;6.40;;
14975;SDS011;7584;60.468;25.126;2023-08-06T03:24:42;11.93;;;5.83;;
14975;SDS011;7584;60.468;25.126;2023-08-06T03:27:08;9.43;;;6.10;;
14975;SDS011;7584;60.468;25.126;2023-08-06T03:29:34;9.60;;;6.40;;
14975;SDS011;7584;60.468;25.126;2023-08-06T03:31:59;9.70;;;5.90;;
14975;SDS011;7584;60.468;25.126;2023-08-06T03:34:24;7.93;;;5.27;;
14975;SDS011;7584;60.468;25.126;2023-08-06T03:36:50;10.67;;;5.83;;
14975;SDS011;7584;60.468;25.126;2023-08-06T03:39:15;6.53;;;5.43;;
14975;SDS011;7584;60.468;25.126;2023-08-06T03:41:40;7.43;;;5.03;;
14975;SDS011;7584;60.468;25.126;2023-08-06T03:44:06;9.33;;;5.67;;
14975;SDS011;7584;60.468;25.126;2023-08-06T03:46:31;9.00;;;4.87;;
14975;SDS011;7584;60.468;25.126;2023-08-06T03:48:59;10.33;;;5.90;;
14975;SDS011;7584;60.468;25.126;2023-08-06T03:51:25;8.83;;;5.33;;
14975;SDS011;7584;60.468;25.126;2023-08-06T03:53:50;8.57;;;5.47;;
14975;SDS011;7584;60.468;25.126;2023-08-06T03:56:16;6.10;;;4.90;;
14975;SDS011;7584;60.468;25.126;2023-08-06T03:58:41;12.67;;;5.07;;
14975;SDS011;7584;60.468;25.126;2023-08-06T04:01:06;9.83;;;5.57;;
14975;SDS011;7584;60.468;25.126;2023-08-06T04:03:32;8.53;;;5.20;;
14975;SDS011;7584;60.468;25.126;2023-08-06T04:05:57;6.80;;;4.83;;
14975;SDS011;7584;60.468;25.126;2023-08-06T04:08:22;7.30;;;4.30;;
14975;SDS011;7584;60.468;25.126;2023-08-06T04:10:53;6.73;;;4.37;;
14975;SDS011;7584;60.468;25.126;2023-08-06T04:13:19;6.73;;;4.43;;
14975;SDS011;7584;60.468;25.126;2023-08-06T04:15:45;6.88;;;4.18;;
14975;SDS011;7584;60.468;25.126;2023-08-06T04:18:10;7.13;;;4.70;;
14975;SDS011;7584;60.468;25.126;2023-08-06T04:20:42;8.10;;;4.10;;
14975;SDS011;7584;60.468;25.126;2023-08-06T04:23:07;4.88;;;3.58;;
14975;SDS011;7584;60.468;25.126;2023-08-06T04:25:32;8.98;;;3.70;;
14975;SDS011;7584;60.468;25.126;2023-08-06T04:27:58;10.25;;;4.07;;
14975;SDS011;7584;60.468;25.126;2023-08-06T04:30:23;5.85;;;3.45;;
14975;SDS011;7584;60.468;25.126;2023-08-06T04:32:49;6.70;;;3.55;;
14975;SDS011;7584;60.468;25.126;2023-08-06T04:35:14;4.30;;;3.30;;
14975;SDS011;7584;60.468;25.126;2023-08-06T04:37:40;6.80;;;3.25;;
14975;SDS011;7584;60.468;25.126;2023-08-06T04:40:05;7.32;;;3.40;;
14975;SDS011;7584;60.468;25.126;2023-08-06T04:42:31;4.50;;;3.28;;
14975;SDS011;7584;60.468;25.126;2023-08-06T04:44:56;7.40;;;3.22;;
14975;SDS011;7584;60.468;25.126;2023-08-06T04:47:21;7.40;;;3.20;;
14975;SDS011;7584;60.468;25.126;2023-08-06T04:49:46;5.15;;;2.83;;
14975;SDS011;7584;60.468;25.126;2023-08-06T04:52:12;6.88;;;3.10;;
14975;SDS011;7584;60.468;25.126;2023-08-06T04:54:37;6.95;;;3.47;;
14975;SDS011;7584;60.468;25.126;2023-08-06T04:57:02;5.75;;;2.90;;
14975;SDS011;7584;60.468;25.126;2023-08-06T04:59:28;6.80;;;3.05;;
14975;SDS011;7584;60.468;25.126;2023-08-06T05:01:53;4.75;;;2.75;;
14975;SDS011;7584;60.468;25.126;2023-08-06T05:04:18;4.20;;;2.88;;
14975;SDS011;7584;60.468;25.126;2023-08-06T05:06:43;7.00;;;2.80;;
14975;SDS011;7584;60.468;25.126;2023-08-06T05:09:09;5.45;;;2.85;;
14975;SDS011;7584;60.468;25.126;2023-08-06T05:11:34;4.97;;;2.45;;
14975;SDS011;7584;60.468;25.126;2023-08-06T05:13:59;4.10;;;2.20;;
14975;SDS011;7584;60.468;25.126;2023-08-06T05:16:28;3.78;;;2.40;;
14975;SDS011;7584;60.468;25.126;2023-08-06T05:18:53;5.40;;;2.50;;
14975;SDS011;7584;60.468;25.126;2023-08-06T05:21:18;3.38;;;2.20;;
14975;SDS011;7584;60.468;25.126;2023-08-06T05:23:43;3.60;;;2.40;;
14975;SDS011;7584;60.468;25.126;2023-08-06T05:26:09;8.32;;;2.67;;
14975;SDS011;7584;60.468;25.126;2023-08-06T05:28:34;4.20;;;2.60;;
14975;SDS011;7584;60.468;25.126;2023-08-06T05:31:02;4.95;;;2.70;;
14975;SDS011;7584;60.468;25.126;2023-08-06T05:33:28;4.50;;;2.28;;
14975;SDS011;7584;60.468;25.126;2023-08-06T05:35:53;4.38;;;2.20;;
14975;SDS011;7584;60.468;25.126;2023-08-06T05:38:18;4.20;;;2.55;;
14975;SDS011;7584;60.468;25.126;2023-08-06T05:40:44;4.18;;;2.25;;
14975;SDS011;7584;60.468;25.126;2023-08-06T05:43:09;3.78;;;2.72;;
14975;SDS011;7584;60.468;25.126;2023-08-06T05:45:34;3.85;;;2.28;;
14975;SDS011;7584;60.468;25.126;2023-08-06T05:48:00;7.80;;;2.55;;
14975;SDS011;7584;60.468;25.126;2023-08-06T05:50:25;3.95;;;2.25;;
14975;SDS011;7584;60.468;25.126;2023-08-06T05:52:50;4.38;;;2.42;;
14975;SDS011;7584;60.468;25.126;2023-08-06T05:55:16;3.05;;;2.10;;
14975;SDS011;7584;60.468;25.126;2023-08-06T05:57:42;5.47;;;2.63;;
14975;SDS011;7584;60.468;25.126;2023-08-06T06:00:07;3.03;;;2.20;;
14975;SDS011;7584;60.468;25.126;2023-08-06T06:02:32;5.57;;;2.58;;
14975;SDS011;7584;60.468;25.126;2023-08-06T06:04:58;4.10;;;2.20;;
14975;SDS011;7584;60.468;25.126;2023-08-06T06:07:23;5.32;;;2.20;;
14975;SDS011;7584;60.468;25.126;2023-08-06T06:09:48;3.22;;;1.77;;
14975;SDS011;7584;60.468;25.126;2023-08-06T06:12:13;2.83;;;2.22;;
14975;SDS011;7584;60.468;25.126;2023-08-06T06:14:39;3.15;;;2.03;;
14975;SDS011;7584;60.468;25.126;2023-08-06T06:17:04;2.78;;;2.00;;
14975;SDS011;7584;60.468;25.126;2023-08-06T06:19:29;7.20;;;2.35;;
14975;SDS011;7584;60.468;25.126;2023-08-06T06:21:55;4.90;;;2.30;;
14975;SDS011;7584;60.468;25.126;2023-08-06T06:24:22;4.32;;;2.03;;
14975;SDS011;7584;60.468;25.126;2023-08-06T06:26:47;3.80;;;1.80;;
14975;SDS011;7584;60.468;25.126;2023-08-06T06:29:13;3.80;;;1.80;;
14975;SDS011;7584;60.468;25.126;2023-08-06T06:31:38;3.05;;;1.70;;
14975;SDS011;7584;60.468;25.126;2023-08-06T06:34:03;2.75;;;2.05;;
14975;SDS011;7584;60.468;25.126;2023-08-06T06:36:29;6.22;;;1.85;;
14975;SDS011;7584;60.468;25.126;2023-08-06T06:38:54;3.67;;;1.88;;
14975;SDS011;7584;60.468;25.126;2023-08-06T06:41:19;4.05;;;1.98;;
14975;SDS011;7584;60.468;25.126;2023-08-06T06:43:44;2.30;;;1.45;;
14975;SDS011;7584;60.468;25.126;2023-08-06T06:46:10;4.03;;;1.50;;
14975;SDS011;7584;60.468;25.126;2023-08-06T06:48:35;3.83;;;1.92;;
14975;SDS011;7584;60.468;25.126;2023-08-06T06:51:00;3.85;;;1.35;;
14975;SDS011;7584;60.468;25.126;2023-08-06T06:53:26;2.83;;;1.40;;
14975;SDS011;7584;60.468;25.126;2023-08-06T06:55:54;2.92;;;1.60;;
14975;SDS011;7584;60.468;25.126;2023-08-06T06:58:20;3.33;;;1.77;;
14975;SDS011;7584;60.468;25.126;2023-08-06T07:00:46;4.05;;;1.98;;
14975;SDS011;7584;60.468;25.126;2023-08-06T07:03:12;1.60;;;1.40;;
14975;SDS011;7584;60.468;25.126;2023-08-06T07:05:37;3.10;;;2.03;;
14975;SDS011;7584;60.468;25.126;2023-08-06T07:08:02;2.42;;;1.50;;
14975;SDS011;7584;60.468;25.126;2023-08-06T07:10:28;5.28;;;1.77;;
14975;SDS011;7584;60.468;25.126;2023-08-06T07:12:53;3.40;;;1.88;;
14975;SDS011;7584;60.468;25.126;2023-08-06T07:15:19;3.00;;;1.60;;
14975;SDS011;7584;60.468;25.126;2023-08-06T07:17:45;4.22;;;1.88;;
14975;SDS011;7584;60.468;25.126;2023-08-06T07:20:10;5.93;;;1.55;;
14975;SDS011;7584;60.468;25.126;2023-08-06T07:22:35;5.38;;;2.05;;
14975;SDS011;7584;60.468;25.126;2023-08-06T07:25:01;2.10;;;1.58;;
14975;SDS011;7584;60.468;25.126;2023-08-06T07:27:26;2.13;;;1.80;;
14975;SDS011;7584;60.468;25.126;2023-08-06T07:29:51;2.97;;;1.83;;
14975;SDS011;7584;60.468;25.126;2023-08-06T07:32:16;4.28;;;1.60;;
14975;SDS011;7584;60.468;25.126;2023-08-06T07:34:42;3.17;;;1.83;;
14975;SDS011;7584;60.468;25.126;2023-08-06T07:37:07;3.85;;;1.83;;
14975;SDS011;7584;60.468;25.126;2023-08-06T07:39:32;4.60;;;1.90;;
14975;SDS011;7584;60.468;25.126;2023-08-06T07:41:58;6.63;;;1.85;;
14975;SDS011;7584;60.468;25.126;2023-08-06T07:44:23;3.03;;;1.75;;
14975;SDS011;7584;60.468;25.126;2023-08-06T07:46:49;2.40;;;1.92;;
14975;SDS011;7584;60.468;25.126;2023-08-06T07:49:14;3.17;;;1.58;;
14975;SDS011;7584;60.468;25.126;2023-08-06T07:51:39;2.63;;;2.03;;
14975;SDS011;7584;60.468;25.126;2023-08-06T07:54:05;2.40;;;1.80;;
14975;SDS011;7584;60.468;25.126;2023-08-06T07:56:30;3.00;;;1.70;;
14975;SDS011;7584;60.468;25.126;2023-08-06T07:58:56;3.95;;;2.00;;
14975;SDS011;7584;60.468;25.126;2023-08-06T08:01:21;5.85;;;2.15;;
14975;SDS011;7584;60.468;25.126;2023-08-06T08:03:47;4.85;;;2.15;;
14975;SDS011;7584;60.468;25.126;2023-08-06T08:06:12;3.97;;;1.67;;
14975;SDS011;7584;60.468;25.126;2023-08-06T08:08:37;4.72;;;2.33;;
14975;SDS011;7584;60.468;25.126;2023-08-06T08:11:04;2.80;;;1.67;;
14975;SDS011;7584;60.468;25.126;2023-08-06T08:13:29;3.47;;;1.67;;
14975;SDS011;7584;60.468;25.126;2023-08-06T08:15:57;3.13;;;1.98;;
14975;SDS011;7584;60.468;25.126;2023-08-06T08:18:23;2.63;;;2.15;;
14975;SDS011;7584;60.468;25.126;2023-08-06T08:20:48;2.92;;;1.88;;
14975;SDS011;7584;60.468;25.126;2023-08-06T08:23:14;4.15;;;1.95;;
14975;SDS011;7584;60.468;25.126;2023-08-06T08:25:39;2.88;;;2.10;;
14975;SDS011;7584;60.468;25.126;2023-08-06T08:28:04;4.53;;;2.25;;
14975;SDS011;7584;60.468;25.126;2023-08-06T08:30:29;4.18;;;2.33;;
14975;SDS011;7584;60.468;25.126;2023-08-06T08:32:55;6.63;;;2.70;;
14975;SDS011;7584;60.468;25.126;2023-08-06T08:35:20;4.47;;;2.00;;
14975;SDS011;7584;60.468;25.126;2023-08-06T08:37:45;3.45;;;2.25;;
14975;SDS011;7584;60.468;25.126;2023-08-06T08:40:11;4.30;;;1.95;;
14975;SDS011;7584;60.468;25.126;2023-08-06T08:42:36;3.05;;;1.90;;
14975;SDS011;7584;60.468;25.126;2023-08-06T08:45:02;2.28;;;1.70;;
14975;SDS011;7584;60.468;25.126;2023-08-06T08:47:28;3.55;;;1.67;;
14975;SDS011;7584;60.468;25.126;2023-08-06T08:49:54;3.40;;;1.60;;
14975;SDS011;7584;60.468;25.126;2023-08-06T08:52:20;2.22;;;1.48;;
14975;SDS011;7584;60.468;25.126;2023-08-06T08:54:46;4.80;;;2.05;;
14975;SDS011;7584;60.468;25.126;2023-08-06T08:57:16;2.47;;;1.45;;
14975;SDS011;7584;60.468;25.126;2023-08-06T08:59:41;2.97;;;1.80;;
14975;SDS011;7584;60.468;25.126;2023-08-06T09:02:07;2.80;;;1.90;;
14975;SDS011;7584;60.468;25.126;2023-08-06T09:04:34;2.67;;;1.70;;
14975;SDS011;7584;60.468;25.126;2023-08-06T09:07:01;3.72;;;1.60;;
14975;SDS011;7584;60.468;25.126;2023-08-06T09:09:31;3.88;;;1.65;;
14975;SDS011;7584;60.468;25.126;2023-08-06T09:12:00;2.88;;;1.85;;
14975;SDS011;7584;60.468;25.126;2023-08-06T09:14:26;4.22;;;2.20;;
14975;SDS011;7584;60.468;25.126;2023-08-06T09:16:51;3.38;;;1.85;;
14975;SDS011;7584;60.468;25.126;2023-08-06T09:19:17;5.07;;;1.75;;
14975;SDS011;7584;60.468;25.126;2023-08-06T09:21:43;2.83;;;1.67;;
14975;SDS011;7584;60.468;25.126;2023-08-06T09:24:09;7.45;;;2.30;;
14975;SDS011;7584;60.468;25.126;2023-08-06T09:26:35;2.72;;;1.52;;
14975;SDS011;7584;60.468;25.126;2023-08-06T09:29:01;3.55;;;2.08;;
14975;SDS011;7584;60.468;25.126;2023-08-06T09:31:32;4.88;;;2.05;;
14975;SDS011;7584;60.468;25.126;2023-08-06T09:33:59;5.32;;;2.10;;
14975;SDS011;7584;60.468;25.126;2023-08-06T09:36:24;2.60;;;1.70;;
14975;SDS011;7584;60.468;25.126;2023-08-06T09:38:49;2.65;;;2.03;;
14975;SDS011;7584;60.468;25.126;2023-08-06T09:41:25;4.30;;;2.00;;
14975;SDS011;7584;60.468;25.126;2023-08-06T09:43:51;3.92;;;2.08;;
14975;SDS011;7584;60.468;25.126;2023-08-06T09:46:16;2.15;;;1.73;;
14975;SDS011;7584;60.468;25.126;2023-08-06T09:48:45;3.35;;;1.95;;
14975;SDS011;7584;60.468;25.126;2023-08-06T09:51:11;4.10;;;1.98;;
14975;SDS011;7584;60.468;25.126;2023-08-06T09:53:37;3.20;;;1.98;;
14975;SDS011;7584;60.468;25.126;2023-08-06T09:56:04;3.97;;;2.20;;
14975;SDS011;7584;60.468;25.126;2023-08-06T09:58:30;4.03;;;2.00;;
14975;SDS011;7584;60.468;25.126;2023-08-06T10:00:56;3.22;;;1.90;;
14975;SDS011;7584;60.468;25.126;2023-08-06T10:03:21;6.63;;;2.08;;
14975;SDS011;7584;60.468;25.126;2023-08-06T10:05:47;4.35;;;2.17;;
14975;SDS011;7584;60.468;25.126;2023-08-06T10:08:13;3.88;;;1.98;;
14975;SDS011;7584;60.468;25.126;2023-08-06T10:10:38;2.83;;;1.95;;
14975;SDS011;7584;60.468;25.126;2023-08-06T10:13:03;4.82;;;2.25;;
14975;SDS011;7584;60.468;25.126;2023-08-06T10:15:31;3.40;;;2.20;;
14975;SDS011;7584;60.468;25.126;2023-08-06T10:17:57;3.60;;;1.92;;
14975;SDS011;7584;60.468;25.126;2023-08-06T10:20:24;2.65;;;2.00;;
14975;SDS011;7584;60.468;25.126;2023-08-06T10:23:02;4.88;;;2.00;;
14975;SDS011;7584;60.468;25.126;2023-08-06T10:25:30;5.80;;;1.70;;
14975;SDS011;7584;60.468;25.126;2023-08-06T10:27:55;3.22;;;1.90;;
14975;SDS011;7584;60.468;25.126;2023-08-06T10:30:27;4.88;;;2.20;;
14975;SDS011;7584;60.468;25.126;2023-08-06T10:33:03;2.00;;;1.80;;
14975;SDS011;7584;60.468;25.126;2023-08-06T10:35:45;2.53;;;2.00;;
14975;SDS011;7584;60.468;25.126;2023-08-06T10:38:11;2.60;;;2.00;;
14975;SDS011;7584;60.468;25.126;2023-08-06T10:40:40;4.88;;;2.10;;
14975;SDS011;7584;60.468;25.126;2023-08-06T10:43:06;5.57;;;2.30;;
14975;SDS011;7584;60.468;25.126;2023-08-06T10:45:36;3.45;;;1.98;;
14975;SDS011;7584;60.468;25.126;2023-08-06T10:48:01;6.13;;;2.25;;
14975;SDS011;7584;60.468;25.126;2023-08-06T10:50:27;2.05;;;1.70;;
14975;SDS011;7584;60.468;25.126;2023-08-06T10:52:52;3.72;;;2.20;;
14975;SDS011;7584;60.468;25.126;2023-08-06T10:57:49;4.32;;;2.03;;
14975;SDS011;7584;60.468;25.126;2023-08-06T11:00:14;3.17;;;1.92;;
14975;SDS011;7584;60.468;25.126;2023-08-06T11:02:40;2.40;;;1.90;;
14975;SDS011;7584;60.468;25.126;2023-08-06T11:05:06;3.03;;;1.90;;
14975;SDS011;7584;60.468;25.126;2023-08-06T11:07:31;3.03;;;2.08;;
14975;SDS011;7584;60.468;25.126;2023-08-06T11:10:07;2.92;;;2.10;;
14975;SDS011;7584;60.468;25.126;2023-08-06T11:12:33;3.30;;;1.90;;
14975;SDS011;7584;60.468;25.126;2023-08-06T11:14:59;2.67;;;1.98;;
14975;SDS011;7584;60.468;25.126;2023-08-06T11:17:24;1.70;;;1.60;;
14975;SDS011;7584;60.468;25.126;2023-08-06T11:19:50;3.17;;;2.00;;
14975;SDS011;7584;60.468;25.126;2023-08-06T11:22:16;5.40;;;1.83;;
14975;SDS011;7584;60.468;25.126;2023-08-06T11:24:42;2.95;;;1.88;;
14975;SDS011;7584;60.468;25.126;2023-08-06T11:27:14;2.58;;;1.85;;
14975;SDS011;7584;60.468;25.126;2023-08-06T11:29:40;2.33;;;2.00;;
14975;SDS011;7584;60.468;25.126;2023-08-06T11:32:05;4.05;;;2.10;;
14975;SDS011;7584;60.468;25.126;2023-08-06T11:34:31;2.17;;;1.80;;
14975;SDS011;7584;60.468;25.126;2023-08-06T11:36:56;3.20;;;2.10;;
14975;SDS011;7584;60.468;25.126;2023-08-06T11:39:21;2.75;;;2.15;;
14975;SDS011;7584;60.468;25.126;2023-08-06T11:41:47;2.80;;;2.25;;
14975;SDS011;7584;60.468;25.126;2023-08-06T11:44:13;3.72;;;2.15;;
14975;SDS011;7584;60.468;25.126;2023-08-06T11:46:54;2.78;;;2.28;;
14975;SDS011;7584;60.468;25.126;2023-08-06T11:52:10;2.83;;;2.15;;
14975;SDS011;7584;60.468;25.126;2023-08-06T11:54:36;5.63;;;3.67;;
14975;SDS011;7584;60.468;25.126;2023-08-06T11:57:02;4.00;;;3.53;;
14975;SDS011;7584;60.468;25.126;2023-08-06T11:59:28;2.83;;;2.05;;
14975;SDS011;7584;60.468;25.126;2023-08-06T12:01:53;3.28;;;2.22;;
14975;SDS011;7584;60.468;25.126;2023-08-06T12:04:18;1.80;;;1.70;;
14975;SDS011;7584;60.468;25.126;2023-08-06T12:06:43;2.20;;;1.90;;
14975;SDS011;7584;60.468;25.126;2023-08-06T12:09:09;2.67;;;1.80;;
14975;SDS011;7584;60.468;25.126;2023-08-06T12:11:35;4.00;;;1.73;;
14975;SDS011;7584;60.468;25.126;2023-08-06T12:14:00;2.03;;;1.83;;
14975;SDS011;7584;60.468;25.126;2023-08-06T12:16:27;3.50;;;1.88;;
14975;SDS011;7584;60.468;25.126;2023-08-06T12:18:53;1.90;;;1.50;;
14975;SDS011;7584;60.468;25.126;2023-08-06T12:21:18;4.07;;;1.77;;
14975;SDS011;7584;60.468;25.126;2023-08-06T12:23:43;2.10;;;1.83;;
14975;SDS011;7584;60.468;25.126;2023-08-06T12:26:09;2.03;;;1.83;;
14975;SDS011;7584;60.468;25.126;2023-08-06T12:28:34;2.90;;;1.63;;
14975;SDS011;7584;60.468;25.126;2023-08-06T12:30:59;4.65;;;1.90;;
14975;SDS011;7584;60.468;25.126;2023-08-06T12:33:25;2.60;;;1.98;;
14975;SDS011;7584;60.468;25.126;2023-08-06T12:35:50;2.80;;;1.65;;
14975;SDS011;7584;60.468;25.126;2023-08-06T12:38:15;3.65;;;2.08;;
14975;SDS011;7584;60.468;25.126;2023-08-06T12:40:40;3.88;;;1.95;;
14975;SDS011;7584;60.468;25.126;2023-08-06T12:43:06;1.95;;;1.77;;
14975;SDS011;7584;60.468;25.126;2023-08-06T12:45:32;1.92;;;1.65;;
14975;SDS011;7584;60.468;25.126;2023-08-06T12:47:58;2.58;;;1.75;;
14975;SDS011;7584;60.468;25.126;2023-08-06T12:50:23;2.42;;;2.10;;
14975;SDS011;7584;60.468;25.126;2023-08-06T12:52:48;2.63;;;1.95;;
14975;SDS011;7584;60.468;25.126;2023-08-06T12:55:14;2.60;;;1.85;;
14975;SDS011;7584;60.468;25.126;2023-08-06T12:57:39;3.97;;;2.10;;
14975;SDS011;7584;60.468;25.126;2023-08-06T13:00:04;3.33;;;1.95;;
14975;SDS011;7584;60.468;25.126;2023-08-06T13:02:30;3.10;;;2.03;;
14975;SDS011;7584;60.468;25.126;2023-08-06T13:04:56;4.90;;;2.15;;
14975;SDS011;7584;60.468;25.126;2023-08-06T13:07:21;3.72;;;1.95;;
14975;SDS011;7584;60.468;25.126;2023-08-06T13:09:46;2.65;;;1.70;;
14975;SDS011;7584;60.468;25.126;2023-08-06T13:12:11;2.20;;;1.55;;
14975;SDS011;7584;60.468;25.126;2023-08-06T13:14:37;2.45;;;1.90;;
14975;SDS011;7584;60.468;25.126;2023-08-06T13:17:02;1.92;;;1.60;;
14975;SDS011;7584;60.468;25.126;2023-08-06T13:19:31;3.17;;;1.92;;
14975;SDS011;7584;60.468;25.126;2023-08-06T13:22:01;3.40;;;2.10;;
14975;SDS011;7584;60.468;25.126;2023-08-06T13:24:32;4.00;;;2.30;;
14975;SDS011;7584;60.468;25.126;2023-08-06T13:26:57;4.28;;;1.80;;
14975;SDS011;7584;60.468;25.126;2023-08-06T13:29:22;3.67;;;1.85;;
14975;SDS011;7584;60.468;25.126;2023-08-06T13:31:48;3.65;;;2.65;;
14975;SDS011;7584;60.468;25.126;2023-08-06T13:34:13;3.58;;;2.20;;
14975;SDS011;7584;60.468;25.126;2023-08-06T13:36:38;5.22;;;2.67;;
14975;SDS011;7584;60.468;25.126;2023-08-06T13:39:04;3.42;;;2.28;;
14975;SDS011;7584;60.468;25.126;2023-08-06T13:41:30;5.97;;;2.17;;
14975;SDS011;7584;60.468;25.126;2023-08-06T13:43:56;5.13;;;2.28;;
14975;SDS011;7584;60.468;25.126;2023-08-06T13:46:21;4.05;;;2.17;;
14975;SDS011;7584;60.468;25.126;2023-08-06T13:48:47;4.63;;;2.38;;
14975;SDS011;7584;60.468;25.126;2023-08-06T13:51:13;3.40;;;2.10;;
14975;SDS011;7584;60.468;25.126;2023-08-06T13:53:39;2.70;;;2.40;;
14975;SDS011;7584;60.468;25.126;2023-08-06T13:56:05;4.72;;;2.03;;
14975;SDS011;7584;60.468;25.126;2023-08-06T13:58:31;3.75;;;2.25;;
14975;SDS011;7584;60.468;25.126;2023-08-06T14:00:56;2.70;;;2.25;;
14975;SDS011;7584;60.468;25.126;2023-08-06T14:03:23;4.05;;;2.15;;
14975;SDS011;7584;60.468;25.126;2023-08-06T14:05:48;4.57;;;2.30;;
14975;SDS011;7584;60.468;25.126;2023-08-06T14:08:13;4.43;;;2.50;;
14975;SDS011;7584;60.468;25.126;2023-08-06T14:10:39;3.03;;;2.33;;
14975;SDS011;7584;60.468;25.126;2023-08-06T14:13:04;3.05;;;2.00;;
14975;SDS011;7584;60.468;25.126;2023-08-06T14:15:29;2.38;;;2.03;;
14975;SDS011;7584;60.468;25.126;2023-08-06T14:17:55;3.13;;;2.25;;
14975;SDS011;7584;60.468;25.126;2023-08-06T14:20:20;6.07;;;2.20;;
14975;SDS011;7584;60.468;25.126;2023-08-06T14:22:45;2.58;;;2.08;;
14975;SDS011;7584;60.468;25.126;2023-08-06T14:25:10;3.15;;;2.78;;
14975;SDS011;7584;60.468;25.126;2023-08-06T14:27:36;2.33;;;2.03;;
14975;SDS011;7584;60.468;25.126;2023-08-06T14:30:03;3.08;;;2.40;;
14975;SDS011;7584;60.468;25.126;2023-08-06T14:32:29;2.55;;;2.05;;
14975;SDS011;7584;60.468;25.126;2023-08-06T14:34:54;2.58;;;2.38;;
14975;SDS011;7584;60.468;25.126;2023-08-06T14:37:19;4.03;;;2.22;;
14975;SDS011;7584;60.468;25.126;2023-08-06T14:39:45;3.85;;;2.40;;
14975;SDS011;7584;60.468;25.126;2023-08-06T14:42:10;2.40;;;2.20;;
14975;SDS011;7584;60.468;25.126;2023-08-06T14:44:35;2.35;;;2.13;;
14975;SDS011;7584;60.468;25.126;2023-08-06T14:47:01;2.80;;;2.13;;